createdAt,value
2018-07-20T00:02:11.055Z,4.10
2018-07-20T00:04:39.464Z,4.30
2018-07-20T00:07:07.833Z,4.10
2018-07-20T00:09:36.202Z,4.03
2018-07-20T00:12:04.568Z,4.60
2018-07-20T00:14:32.949Z,4.63
2018-07-20T00:17:01.322Z,4.47
2018-07-20T00:19:29.744Z,5.50
2018-07-20T00:21:58.102Z,4.90
2018-07-20T00:24:26.491Z,4.53
2018-07-20T00:26:54.838Z,4.70
2018-07-20T00:29:23.215Z,5.30
2018-07-20T00:31:51.549Z,4.70
2018-07-20T00:34:19.951Z,5.17
2018-07-20T00:36:48.289Z,4.60
2018-07-20T00:39:16.676Z,4.70
2018-07-20T00:41:45.021Z,5.00
2018-07-20T00:44:13.389Z,4.70
2018-07-20T00:46:41.461Z,4.90
2018-07-20T00:49:09.559Z,4.87
2018-07-20T00:51:37.904Z,4.50
2018-07-20T00:54:06.277Z,4.53
2018-07-20T00:56:34.612Z,4.60
2018-07-20T00:59:02.976Z,4.77
2018-07-20T01:01:31.344Z,4.77
2018-07-20T01:03:59.685Z,4.77
2018-07-20T01:06:28.056Z,5.10
2018-07-20T01:08:56.408Z,4.73
2018-07-20T01:11:26.764Z,4.70
2018-07-20T01:13:55.115Z,5.00
2018-07-20T01:16:23.476Z,4.80
2018-07-20T01:18:51.821Z,4.90
2018-07-20T01:21:20.189Z,4.30
2018-07-20T01:23:48.538Z,4.83
2018-07-20T01:26:16.901Z,4.80
2018-07-20T01:28:45.234Z,4.30
2018-07-20T01:31:13.604Z,4.60
2018-07-20T01:33:41.947Z,4.77
2018-07-20T01:36:10.324Z,4.47
2018-07-20T01:38:38.670Z,5.23
2018-07-20T01:41:06.808Z,4.70
2018-07-20T01:43:35.199Z,5.03
2018-07-20T01:46:03.559Z,4.47
2018-07-20T01:48:31.917Z,5.10
2018-07-20T01:51:00.304Z,5.20
2018-07-20T01:53:28.639Z,4.87
2018-07-20T01:55:56.991Z,5.00
2018-07-20T01:58:25.346Z,5.93
2018-07-20T02:00:53.777Z,5.23
2018-07-20T02:03:22.183Z,5.00
2018-07-20T02:05:50.523Z,5.60
2018-07-20T02:08:18.850Z,5.67
2018-07-20T02:10:50.747Z,5.63
2018-07-20T02:13:19.091Z,5.57
2018-07-20T02:15:47.431Z,6.07
2018-07-20T02:18:15.486Z,5.73
2018-07-20T02:20:43.828Z,5.90
2018-07-20T02:23:12.143Z,6.53
2018-07-20T02:25:40.492Z,6.40
2018-07-20T02:28:08.819Z,5.83
2018-07-20T02:30:36.910Z,5.70
2018-07-20T02:33:05.245Z,5.70
2018-07-20T02:35:33.605Z,5.70
2018-07-20T02:38:01.927Z,5.83
2018-07-20T02:40:30.276Z,5.83
2018-07-20T02:42:58.700Z,5.87
2018-07-20T02:45:26.776Z,5.83
2018-07-20T02:47:54.872Z,5.80
2018-07-20T02:50:23.199Z,5.90
2018-07-20T02:52:51.596Z,5.63
2018-07-20T02:55:20.068Z,5.80
2018-07-20T02:57:48.441Z,5.60
2018-07-20T03:00:16.809Z,6.60
2018-07-20T03:02:45.167Z,6.70
2018-07-20T03:05:13.484Z,6.33
2018-07-20T03:07:41.912Z,6.63
2018-07-20T03:10:10.248Z,5.60
2018-07-20T03:12:38.664Z,6.40
2018-07-20T03:15:07.044Z,6.03
2018-07-20T03:17:35.447Z,6.23
2018-07-20T03:20:03.800Z,6.30
2018-07-20T03:22:32.162Z,6.17
2018-07-20T03:25:00.491Z,5.43
2018-07-20T03:27:28.851Z,5.83
2018-07-20T03:29:57.220Z,6.07
2018-07-20T03:32:25.560Z,6.00
2018-07-20T03:34:53.927Z,6.20
2018-07-20T03:37:22.282Z,5.73
2018-07-20T03:39:50.647Z,5.73
2018-07-20T03:42:18.996Z,5.43
2018-07-20T03:44:47.087Z,5.50
2018-07-20T03:47:15.437Z,5.40
2018-07-20T03:49:43.816Z,5.07
2018-07-20T03:52:12.166Z,5.78
2018-07-20T03:54:40.547Z,5.00
2018-07-20T03:57:08.928Z,5.30
2018-07-20T03:59:37.357Z,5.00
2018-07-20T04:02:05.727Z,4.53
2018-07-20T04:04:33.839Z,5.50
2018-07-20T04:07:02.211Z,5.30
2018-07-20T04:09:30.600Z,4.80
2018-07-20T04:11:58.944Z,5.27
2018-07-20T04:14:27.042Z,5.00
2018-07-20T04:16:55.391Z,5.07
2018-07-20T04:19:23.764Z,5.03
2018-07-20T04:21:52.116Z,5.10
2018-07-20T04:24:20.560Z,5.43
2018-07-20T04:26:48.909Z,5.37
2018-07-20T04:29:16.963Z,4.93
2018-07-20T04:31:45.325Z,5.17
2018-07-20T04:34:13.663Z,5.47
2018-07-20T04:36:42.043Z,5.10
2018-07-20T04:39:12.855Z,5.07
2018-07-20T04:41:41.386Z,5.10
2018-07-20T04:44:09.720Z,4.77
2018-07-20T04:46:38.046Z,5.10
2018-07-20T04:49:06.376Z,5.07
2018-07-20T04:51:34.558Z,4.40
2018-07-20T04:54:03.064Z,5.30
2018-07-20T04:56:31.428Z,4.67
2018-07-20T04:58:59.792Z,4.80
2018-07-20T05:01:27.938Z,5.10
2018-07-20T05:03:56.265Z,5.13
2018-07-20T05:06:24.615Z,4.80
2018-07-20T05:08:52.940Z,4.93
2018-07-20T05:11:21.329Z,4.93
2018-07-20T05:13:49.651Z,4.60
2018-07-20T05:16:18.384Z,4.70
2018-07-20T05:18:46.731Z,4.80
2018-07-20T05:21:15.074Z,4.87
2018-07-20T05:23:43.421Z,4.43
2018-07-20T05:26:11.778Z,4.90
2018-07-20T05:28:40.083Z,5.30
2018-07-20T05:31:08.406Z,4.53
2018-07-20T05:33:36.760Z,4.67
2018-07-20T05:36:05.138Z,4.07
2018-07-20T05:38:33.498Z,4.40
2018-07-20T05:41:01.815Z,4.47
2018-07-20T05:43:30.150Z,4.10
2018-07-20T05:45:58.491Z,4.03
2018-07-20T05:48:26.881Z,4.23
2018-07-20T05:50:54.933Z,4.20
2018-07-20T05:53:23.322Z,4.10
2018-07-20T05:55:51.631Z,4.53
2018-07-20T05:58:20.007Z,3.97
2018-07-20T06:00:48.382Z,4.13
2018-07-20T06:03:16.483Z,4.53
2018-07-20T06:05:44.827Z,4.57
2018-07-20T06:08:12.921Z,4.13
2018-07-20T06:10:41.311Z,4.77
2018-07-20T06:13:09.658Z,4.30
2018-07-20T06:15:37.982Z,4.20
2018-07-20T06:18:06.324Z,4.20
2018-07-20T06:20:34.391Z,4.20
2018-07-20T06:23:02.472Z,3.93
2018-07-20T06:25:30.672Z,4.63
2018-07-20T06:27:58.953Z,4.40
2018-07-20T06:30:27.634Z,4.70
2018-07-20T06:32:56.253Z,4.50
2018-07-20T06:35:24.683Z,4.10
2018-07-20T06:37:52.760Z,4.00
2018-07-20T06:40:20.838Z,4.60
2018-07-20T06:42:48.930Z,4.47
2018-07-20T06:45:17.256Z,4.67
2018-07-20T06:47:45.575Z,4.53
2018-07-20T06:50:16.603Z,5.00
2018-07-20T06:52:45.882Z,4.67
2018-07-20T06:55:14.239Z,4.67
2018-07-20T06:57:42.680Z,4.57
2018-07-20T07:00:11.030Z,4.00
2018-07-20T07:02:39.386Z,4.60
2018-07-20T07:05:09.039Z,5.00
2018-07-20T07:07:37.359Z,4.87
2018-07-20T07:10:06.407Z,4.10
2018-07-20T07:12:34.743Z,4.47
2018-07-20T07:15:03.188Z,4.63
2018-07-20T07:17:31.487Z,4.53
2018-07-20T07:19:59.814Z,4.53
2018-07-20T07:22:28.135Z,4.33
2018-07-20T07:24:56.472Z,4.07
2018-07-20T07:27:24.527Z,4.27
2018-07-20T07:29:52.943Z,4.60
2018-07-20T07:32:21.266Z,4.17
2018-07-20T07:34:49.660Z,4.07
2018-07-20T07:37:17.980Z,4.10
2018-07-20T07:39:46.058Z,4.73
2018-07-20T07:42:14.516Z,4.30
2018-07-20T07:44:42.787Z,4.23
2018-07-20T07:47:11.180Z,3.83
2018-07-20T07:49:39.306Z,4.40
2018-07-20T07:52:07.711Z,3.73
2018-07-20T07:54:36.065Z,3.93
2018-07-20T07:57:04.399Z,3.50
2018-07-20T07:59:32.487Z,3.90
2018-07-20T08:02:00.825Z,3.70
2018-07-20T08:04:29.189Z,3.53
2018-07-20T08:06:57.515Z,3.80
2018-07-20T08:09:25.614Z,3.80
2018-07-20T08:11:53.943Z,4.10
2018-07-20T08:14:22.714Z,4.07
2018-07-20T08:16:51.027Z,4.20
2018-07-20T08:19:19.098Z,3.80
2018-07-20T08:21:47.190Z,3.97
2018-07-20T08:24:15.552Z,3.93
2018-07-20T08:26:43.620Z,4.23
2018-07-20T08:29:12.039Z,3.73
2018-07-20T08:31:40.371Z,3.57
2018-07-20T08:34:08.730Z,3.93
2018-07-20T08:36:37.072Z,4.10
2018-07-20T08:39:07.664Z,3.73
2018-07-20T08:41:36.004Z,3.70
2018-07-20T08:44:04.331Z,3.77
2018-07-20T08:46:32.427Z,3.57
2018-07-20T08:49:00.788Z,4.00
2018-07-20T08:51:29.167Z,3.93
2018-07-20T08:53:57.252Z,3.77
2018-07-20T08:56:25.588Z,3.83
2018-07-20T08:58:53.947Z,3.87
2018-07-20T09:01:22.286Z,3.57
2018-07-20T09:03:50.595Z,3.77
2018-07-20T09:06:18.919Z,3.80
2018-07-20T09:08:47.235Z,3.63
2018-07-20T09:11:15.651Z,3.90
2018-07-20T09:13:43.997Z,4.30
2018-07-20T09:16:12.315Z,4.10
2018-07-20T09:18:40.816Z,3.80
2018-07-20T09:21:09.192Z,3.73
2018-07-20T09:23:37.503Z,3.97
2018-07-20T09:26:05.839Z,3.73
2018-07-20T09:28:34.157Z,3.87
2018-07-20T09:31:02.512Z,3.83
2018-07-20T09:33:30.570Z,4.37
2018-07-20T09:35:58.915Z,4.00
2018-07-20T09:38:27.223Z,4.57
2018-07-20T09:40:55.567Z,3.90
2018-07-20T09:43:23.897Z,3.93
2018-07-20T09:45:52.285Z,3.90
2018-07-20T09:48:20.341Z,4.50
2018-07-20T09:50:48.736Z,4.03
2018-07-20T09:53:17.071Z,3.97
2018-07-20T09:55:45.440Z,4.37
2018-07-20T09:58:13.810Z,3.90
2018-07-20T10:00:47.448Z,4.00
2018-07-20T10:03:15.793Z,3.60
2018-07-20T10:05:44.463Z,3.67
2018-07-20T10:08:12.791Z,3.97
2018-07-20T10:10:41.192Z,4.00
2018-07-20T10:13:09.509Z,3.60
2018-07-20T10:15:37.954Z,3.40
2018-07-20T10:18:06.276Z,4.50
2018-07-20T10:20:34.682Z,3.87
2018-07-20T10:23:03.108Z,3.60
2018-07-20T10:25:32.024Z,3.95
2018-07-20T10:28:00.351Z,3.80
2018-07-20T10:30:28.737Z,3.53
2018-07-20T10:32:57.103Z,3.70
2018-07-20T10:35:25.407Z,4.10
2018-07-20T10:37:53.486Z,4.10
2018-07-20T10:40:25.152Z,3.62
2018-07-20T10:42:53.399Z,3.60
2018-07-20T10:45:21.790Z,4.00
2018-07-20T10:47:50.131Z,4.05
2018-07-20T10:50:18.443Z,4.42
2018-07-20T10:52:46.805Z,3.80
2018-07-20T10:55:15.122Z,3.70
2018-07-20T10:57:43.212Z,3.58
2018-07-20T11:00:11.519Z,3.72
2018-07-20T11:02:39.939Z,3.83
2018-07-20T11:05:08.303Z,4.40
2018-07-20T11:07:36.636Z,3.90
2018-07-20T11:10:05.271Z,3.65
2018-07-20T11:12:33.611Z,3.60
2018-07-20T11:15:01.982Z,4.00
2018-07-20T11:17:30.327Z,4.15
2018-07-20T11:19:58.382Z,4.12
2018-07-20T11:22:26.723Z,3.98
2018-07-20T11:24:55.051Z,4.53
2018-07-20T11:27:23.403Z,4.87
2018-07-20T11:29:51.727Z,4.28
2018-07-20T11:32:19.806Z,4.25
2018-07-20T11:34:48.170Z,4.40
2018-07-20T11:37:16.527Z,3.90
2018-07-20T11:39:45.115Z,4.25
2018-07-20T11:42:13.462Z,4.37
2018-07-20T11:44:41.784Z,4.30
2018-07-20T11:47:10.142Z,4.50
2018-07-20T11:49:38.501Z,4.55
2018-07-20T11:52:06.865Z,4.72
2018-07-20T11:54:35.177Z,4.50
2018-07-20T11:57:03.553Z,4.33
2018-07-20T11:59:31.867Z,4.30
2018-07-20T12:02:00.047Z,4.83
2018-07-20T12:04:28.089Z,4.72
2018-07-20T12:06:56.460Z,4.72
2018-07-20T12:09:24.772Z,5.22
2018-07-20T12:11:52.874Z,4.70
2018-07-20T12:14:21.267Z,4.83
2018-07-20T12:16:49.595Z,5.33
2018-07-20T12:19:17.943Z,5.33
2018-07-20T12:21:46.263Z,4.87
2018-07-20T12:24:14.330Z,5.08
2018-07-20T12:26:42.668Z,5.20
2018-07-20T12:29:11.311Z,5.20
2018-07-20T12:31:39.366Z,5.10
2018-07-20T12:34:07.773Z,4.97
2018-07-20T12:36:36.072Z,4.87
2018-07-20T12:39:06.379Z,4.80
2018-07-20T12:41:34.697Z,5.20
2018-07-20T12:44:03.040Z,5.05
2018-07-20T12:46:31.364Z,5.17
2018-07-20T12:48:59.719Z,5.30
2018-07-20T12:51:28.050Z,5.10
2018-07-20T12:53:56.134Z,5.67
2018-07-20T12:56:24.503Z,5.37
2018-07-20T12:58:52.614Z,5.40
2018-07-20T13:01:20.963Z,5.25
2018-07-20T13:03:49.043Z,5.35
2018-07-20T13:06:17.367Z,5.30
2018-07-20T13:08:46.108Z,5.37
2018-07-20T13:11:14.523Z,5.50
2018-07-20T13:13:42.894Z,5.33
2018-07-20T13:16:11.220Z,5.50
2018-07-20T13:18:39.564Z,5.50
2018-07-20T13:21:07.891Z,5.75
2018-07-20T13:23:36.291Z,5.70
2018-07-20T13:26:04.391Z,4.95
2018-07-20T13:28:32.758Z,5.22
2018-07-20T13:31:01.112Z,5.60
2018-07-20T13:33:29.473Z,5.37
2018-07-20T13:35:57.787Z,5.15
2018-07-20T13:38:26.367Z,5.83
2018-07-20T13:40:54.704Z,5.75
2018-07-20T13:43:23.045Z,5.22
2018-07-20T13:45:51.360Z,5.50
2018-07-20T13:48:19.834Z,5.80
2018-07-20T13:50:48.195Z,5.37
2018-07-20T13:53:16.536Z,6.25
2018-07-20T13:55:44.860Z,5.05
2018-07-20T13:58:13.235Z,6.10
2018-07-20T14:00:41.571Z,5.33
2018-07-20T14:03:11.532Z,5.72
2018-07-20T14:05:39.961Z,4.83
2018-07-20T14:08:08.039Z,5.67
2018-07-20T14:10:36.134Z,5.80
2018-07-20T14:13:04.471Z,5.55
2018-07-20T14:15:33.647Z,5.37
2018-07-20T14:18:02.005Z,5.80
2018-07-20T14:20:30.379Z,5.58
2018-07-20T14:22:58.715Z,6.05
2018-07-20T14:25:27.062Z,5.72
2018-07-20T14:27:55.427Z,6.45
2018-07-20T14:30:23.772Z,5.90
2018-07-20T14:32:52.096Z,6.37
2018-07-20T14:35:20.439Z,6.20
2018-07-20T14:37:48.762Z,6.20
2018-07-20T14:40:17.172Z,6.15
2018-07-20T14:42:45.493Z,5.55
2018-07-20T14:45:13.839Z,5.80
2018-07-20T14:47:41.878Z,6.22
2018-07-20T14:50:09.970Z,6.40
2018-07-20T14:52:38.294Z,5.80
2018-07-20T14:55:06.635Z,6.35
2018-07-20T14:57:34.707Z,6.42
2018-07-20T15:00:02.827Z,6.70
2018-07-20T15:02:31.143Z,6.42
2018-07-20T15:04:59.492Z,5.87
2018-07-20T15:07:27.812Z,6.70
2018-07-20T15:09:55.888Z,5.95
2018-07-20T15:12:23.959Z,7.53
2018-07-20T15:14:52.051Z,5.62
2018-07-20T15:17:20.400Z,5.92
2018-07-20T15:19:48.770Z,5.97
2018-07-20T15:22:17.091Z,5.95
2018-07-20T15:24:45.446Z,5.95
2018-07-20T15:27:13.764Z,6.67
2018-07-20T15:29:42.103Z,6.37
2018-07-20T15:32:10.182Z,6.45
2018-07-20T15:34:38.275Z,6.40
2018-07-20T15:37:06.634Z,6.75
2018-07-20T15:39:35.021Z,6.50
2018-07-20T15:42:03.351Z,6.45
2018-07-20T15:44:31.691Z,6.55
2018-07-20T15:47:00.267Z,6.75
2018-07-20T15:49:28.393Z,6.50
2018-07-20T15:53:35.460Z,6.58
2018-07-20T15:54:25.092Z,6.37
2018-07-20T15:56:53.190Z,6.60
2018-07-20T15:59:21.562Z,6.78
2018-07-20T16:01:49.907Z,6.47
2018-07-20T16:04:18.270Z,6.97
2018-07-20T16:06:46.675Z,6.53
2018-07-20T16:09:15.014Z,6.17
2018-07-20T16:11:43.444Z,6.67
2018-07-20T16:14:11.740Z,6.90
2018-07-20T16:16:40.087Z,6.47
2018-07-20T16:19:08.483Z,5.92
2018-07-20T16:21:36.562Z,6.08
2018-07-20T16:24:04.896Z,6.22
2018-07-20T16:26:33.248Z,5.97
2018-07-20T16:29:01.572Z,6.40
2018-07-20T16:31:29.927Z,6.30
2018-07-20T16:33:58.239Z,6.10
2018-07-20T16:36:26.595Z,5.90
2018-07-20T16:38:54.914Z,6.00
2018-07-20T16:41:23.244Z,6.10
2018-07-20T16:43:51.619Z,6.42
2018-07-20T16:46:20.052Z,6.15
2018-07-20T16:48:48.108Z,6.28
2018-07-20T16:51:16.472Z,6.70
2018-07-20T16:53:44.812Z,6.42
2018-07-20T16:56:13.158Z,6.58
2018-07-20T16:58:41.281Z,6.30
2018-07-20T17:01:10.224Z,5.97
2018-07-20T17:03:38.270Z,7.00
2018-07-20T17:06:06.683Z,6.62
2018-07-20T17:08:34.746Z,6.50
2018-07-20T17:11:03.108Z,6.50
2018-07-20T17:13:31.444Z,6.37
2018-07-20T17:15:59.810Z,7.17
2018-07-20T17:18:28.130Z,6.72
2018-07-20T17:20:56.494Z,6.87
2018-07-20T17:23:24.814Z,6.80
2018-07-20T17:25:53.149Z,6.80
2018-07-20T17:28:21.483Z,6.97
2018-07-20T17:30:49.827Z,6.67
2018-07-20T17:33:18.150Z,6.83
2018-07-20T17:35:46.511Z,6.72
2018-07-20T17:38:14.584Z,7.15
2018-07-20T17:40:42.680Z,7.42
2018-07-20T17:43:11.062Z,7.10
2018-07-20T17:45:39.433Z,7.03
2018-07-20T17:48:07.531Z,6.72
2018-07-20T17:50:35.860Z,6.80
2018-07-20T17:53:04.203Z,7.28
2018-07-20T17:55:32.572Z,7.00
2018-07-20T17:58:00.956Z,6.60
2018-07-20T18:00:29.306Z,6.83
2018-07-20T18:02:57.647Z,7.35
2018-07-20T18:05:25.972Z,7.17
2018-07-20T18:07:54.329Z,7.55
2018-07-20T18:10:22.398Z,7.25
2018-07-20T18:12:50.763Z,7.78
2018-07-20T18:15:19.097Z,7.42
2018-07-20T18:17:47.472Z,7.12
2018-07-20T18:20:15.801Z,7.22
2018-07-20T18:22:44.148Z,7.30
2018-07-20T18:25:13.176Z,7.40
2018-07-20T18:27:41.516Z,7.30
2018-07-20T18:30:09.848Z,7.75
2018-07-20T18:32:38.195Z,7.53
2018-07-20T18:35:06.585Z,6.97
2018-07-20T18:37:34.932Z,7.20
2018-07-20T18:40:03.288Z,7.37
2018-07-20T18:42:31.640Z,6.92
2018-07-20T18:44:59.738Z,7.17
2018-07-20T18:47:28.083Z,7.70
2018-07-20T18:49:56.406Z,7.80
2018-07-20T18:52:24.772Z,8.00
2018-07-20T18:54:53.086Z,7.55
2018-07-20T18:57:21.455Z,7.50
2018-07-20T18:59:49.792Z,7.47
2018-07-20T19:02:18.142Z,7.95
2018-07-20T19:04:46.460Z,7.17
2018-07-20T19:07:14.865Z,7.22
2018-07-20T19:09:43.191Z,7.70
2018-07-20T19:12:11.539Z,7.08
2018-07-20T19:14:39.958Z,7.78
2018-07-20T19:17:08.341Z,7.75
2018-07-20T19:19:36.661Z,7.40
2018-07-20T19:22:05.000Z,7.53
2018-07-20T19:24:33.339Z,7.80
2018-07-20T19:27:01.718Z,7.62
2018-07-20T19:29:30.028Z,7.25
2018-07-20T19:31:58.372Z,7.65
2018-07-20T19:34:26.737Z,7.15
2018-07-20T19:36:55.047Z,8.03
2018-07-20T19:39:23.387Z,7.65
2018-07-20T19:41:51.701Z,8.28
2018-07-20T19:44:20.051Z,7.42
2018-07-20T19:46:48.383Z,7.90
2018-07-20T19:49:16.728Z,8.28
2018-07-20T19:51:45.044Z,8.05
2018-07-20T19:54:13.387Z,8.10
2018-07-20T19:56:41.707Z,8.05
2018-07-20T19:59:09.804Z,8.38
2018-07-20T20:01:38.131Z,8.18
2018-07-20T20:04:06.487Z,7.87
2018-07-20T20:06:34.809Z,7.55
2018-07-20T20:09:03.221Z,8.60
2018-07-20T20:11:31.588Z,8.23
2018-07-20T20:13:59.676Z,8.05
2018-07-20T20:16:28.029Z,8.03
2018-07-20T20:18:56.384Z,8.08
2018-07-20T20:21:24.730Z,8.10
2018-07-20T20:23:53.095Z,8.38
2018-07-20T20:26:21.418Z,8.20
2018-07-20T20:28:49.772Z,7.80
2018-07-20T20:31:18.151Z,8.53
2018-07-20T20:33:46.511Z,9.00
2018-07-20T20:36:14.839Z,8.70
2018-07-20T20:38:43.195Z,8.00
2018-07-20T20:41:11.659Z,8.53
2018-07-20T20:43:40.109Z,8.78
2018-07-20T20:46:08.495Z,8.75
2018-07-20T20:48:36.647Z,8.13
2018-07-20T20:51:05.045Z,8.15
2018-07-20T20:53:33.372Z,8.93
2018-07-20T20:56:01.712Z,8.15
2018-07-20T20:58:29.822Z,8.58
2018-07-20T21:00:58.163Z,8.70
2018-07-20T21:03:26.260Z,8.75
2018-07-20T21:05:54.611Z,8.75
2018-07-20T21:08:22.730Z,8.70
2018-07-20T21:10:51.704Z,8.65
2018-07-20T21:13:20.107Z,8.23
2018-07-20T21:15:48.424Z,8.50
2018-07-20T21:18:16.787Z,8.43
2018-07-20T21:20:45.164Z,7.90
2018-07-20T21:23:13.880Z,8.50
2018-07-20T21:25:41.954Z,7.97
2018-07-20T21:28:10.268Z,8.30
2018-07-20T21:30:38.617Z,8.05
2018-07-20T21:33:06.726Z,8.38
2018-07-20T21:35:35.230Z,7.25
2018-07-20T21:38:03.942Z,7.47
2018-07-20T21:40:32.335Z,8.13
2018-07-20T21:43:00.590Z,7.47
2018-07-20T21:45:29.057Z,7.55
2018-07-20T21:47:57.335Z,7.33
2018-07-20T21:50:25.768Z,6.87
2018-07-20T21:52:54.083Z,6.80
2018-07-20T21:55:22.534Z,7.07
2018-07-20T21:57:51.028Z,7.70
2018-07-20T22:00:19.783Z,6.37
2018-07-20T22:02:48.891Z,6.40
2018-07-20T22:05:17.283Z,6.80
2018-07-20T22:07:45.708Z,6.30
2018-07-20T22:10:13.887Z,6.87
2018-07-20T22:12:42.228Z,6.47
2018-07-20T22:15:10.790Z,5.83
2018-07-20T22:17:39.121Z,5.77
2018-07-20T22:20:08.575Z,6.03
2018-07-20T22:22:36.904Z,6.30
2018-07-20T22:25:06.154Z,5.90
2018-07-20T22:27:34.520Z,6.23
2018-07-20T22:30:02.791Z,5.10
2018-07-20T22:32:31.116Z,5.70
2018-07-20T22:34:59.456Z,5.53
2018-07-20T22:37:27.790Z,5.30
2018-07-20T22:39:56.139Z,5.33
2018-07-20T22:42:24.468Z,5.40
2018-07-20T22:44:52.829Z,5.70
2018-07-20T22:47:21.238Z,4.97
2018-07-20T22:49:49.585Z,4.63
2018-07-20T22:52:17.920Z,4.83
2018-07-20T22:54:49.094Z,4.53
2018-07-20T22:57:20.074Z,4.50
2018-07-20T22:59:48.520Z,4.90
2018-07-20T23:02:16.855Z,4.20
2018-07-20T23:04:45.204Z,4.53
2018-07-20T23:07:13.535Z,4.63
2018-07-20T23:09:41.880Z,4.43
2018-07-20T23:12:10.214Z,4.53
2018-07-20T23:14:38.575Z,4.30
2018-07-20T23:17:06.915Z,4.40
2018-07-20T23:19:35.284Z,4.17
2018-07-20T23:22:03.655Z,4.60
2018-07-20T23:24:32.044Z,4.67
2018-07-20T23:27:00.408Z,4.50
2018-07-20T23:29:28.797Z,4.00
2018-07-20T23:31:57.164Z,4.00
2018-07-20T23:34:25.505Z,4.20
2018-07-20T23:36:53.881Z,4.27
2018-07-20T23:39:22.234Z,4.10
2018-07-20T23:41:50.575Z,4.47
2018-07-20T23:44:18.911Z,4.63
2018-07-20T23:46:47.315Z,3.57
2018-07-20T23:49:15.652Z,4.10
2018-07-20T23:51:44.021Z,3.30
2018-07-20T23:54:12.407Z,3.70
2018-07-20T23:56:40.777Z,4.00
2018-07-20T23:59:09.156Z,3.90
